createdAt,value
2023-01-01T00:02:01.125Z,100265.66
2023-01-01T00:04:29.861Z,100258.06
2023-01-01T00:06:57.983Z,100265.56
2023-01-01T00:09:44.067Z,100269.09
2023-01-01T00:12:13.937Z,100266.03
2023-01-01T00:14:44.284Z,100272.41
2023-01-01T00:17:12.632Z,100273.94
2023-01-01T00:19:40.736Z,100271.63
2023-01-01T00:22:35.197Z,100274.94
2023-01-01T00:24:59.949Z,100278.31
2023-01-01T00:27:29.809Z,100276.94
2023-01-01T00:29:58.574Z,100277.06
2023-01-01T00:32:27.877Z,100278.91
2023-01-01T00:34:57.332Z,100276.94
2023-01-01T00:37:25.719Z,100275.78
2023-01-01T00:39:53.905Z,100276.31
2023-01-01T00:42:22.089Z,100277.47
2023-01-01T00:44:53.530Z,100278.84
2023-01-01T00:47:21.664Z,100271.09
2023-01-01T00:49:49.705Z,100265.25
2023-01-01T00:52:18.063Z,100266.19
2023-01-01T00:54:46.081Z,100275.94
2023-01-01T00:57:14.250Z,100271.94
2023-01-01T00:59:42.538Z,100282.31
2023-01-01T01:02:12.032Z,100284.59
2023-01-01T01:04:40.174Z,100282.09
2023-01-01T01:07:08.483Z,100280.25
2023-01-01T01:09:36.794Z,100284.94
2023-01-01T01:12:18.083Z,100283.53
2023-01-01T01:14:47.499Z,100294.06
2023-01-01T01:17:17.022Z,100287.00
2023-01-01T01:19:45.086Z,100287.97
2023-01-01T01:22:13.334Z,100299.72
2023-01-01T01:24:41.368Z,100300.31
2023-01-01T01:27:09.577Z,100302.16
2023-01-01T01:29:38.130Z,100304.25
2023-01-01T01:32:06.831Z,100306.09
2023-01-01T01:34:36.259Z,100311.22
2023-01-01T01:37:05.323Z,100309.53
2023-01-01T01:39:33.367Z,100309.66
2023-01-01T01:42:03.645Z,100304.59
2023-01-01T01:44:54.332Z,100309.69
2023-01-01T01:47:28.149Z,100304.63
2023-01-01T01:50:02.999Z,100310.56
2023-01-01T01:52:33.323Z,100302.06
2023-01-01T01:55:03.255Z,100302.78
2023-01-01T01:57:32.339Z,100315.37
2023-01-01T02:00:08.640Z,100307.16
2023-01-01T02:02:44.775Z,100317.34
2023-01-01T02:05:14.618Z,100306.94
2023-01-01T02:07:43.473Z,100309.47
2023-01-01T02:10:11.761Z,100309.88
2023-01-01T02:12:40.045Z,100306.66
2023-01-01T02:15:10.032Z,100301.84
2023-01-01T02:17:45.174Z,100303.81
2023-01-01T02:20:29.630Z,100313.72
2023-01-01T02:23:16.966Z,100312.31
2023-01-01T02:25:58.175Z,100297.47
2023-01-01T02:28:45.585Z,100313.00
2023-01-01T02:31:23.186Z,100296.62
2023-01-01T02:33:54.786Z,100309.91
2023-01-01T02:36:25.401Z,100301.87
2023-01-01T02:38:56.717Z,100302.56
2023-01-01T02:41:28.759Z,100301.72
2023-01-01T02:46:31.315Z,100301.72
2023-01-01T02:49:03.351Z,100293.81
2023-01-01T02:51:42.428Z,100297.59
2023-01-01T02:54:19.661Z,100297.06
2023-01-01T02:56:53.472Z,100288.56
2023-01-01T02:59:48.839Z,100282.78
2023-01-01T03:02:28.284Z,100275.28
2023-01-01T03:05:07.628Z,100278.38
2023-01-01T03:07:42.599Z,100276.38
2023-01-01T03:10:16.156Z,100280.75
2023-01-01T03:12:50.179Z,100279.34
2023-01-01T03:15:28.922Z,100281.47
2023-01-01T03:18:02.981Z,100300.59
2023-01-01T03:20:34.543Z,100291.31
2023-01-01T03:23:08.598Z,100285.34
2023-01-01T03:25:43.563Z,100286.75
2023-01-01T03:28:15.575Z,100283.50
2023-01-01T03:30:48.381Z,100283.47
2023-01-01T03:33:22.501Z,100278.81
2023-01-01T03:35:53.822Z,100283.22
2023-01-01T03:38:26.302Z,100274.56
2023-01-01T03:40:59.095Z,100279.69
2023-01-01T03:43:38.942Z,100281.22
2023-01-01T03:46:09.893Z,100292.94
2023-01-01T03:48:57.026Z,100289.41
2023-01-01T03:51:36.599Z,100286.84
2023-01-01T03:54:13.211Z,100293.06
2023-01-01T03:56:46.944Z,100306.00
2023-01-01T03:59:21.715Z,100312.34
2023-01-01T04:01:54.682Z,100307.56
2023-01-01T04:04:23.290Z,100311.22
2023-01-01T04:06:51.590Z,100306.72
2023-01-01T04:09:24.276Z,100302.34
2023-01-01T04:12:04.334Z,100304.47
2023-01-01T04:14:34.359Z,100314.56
2023-01-01T04:17:06.107Z,100314.56
2023-01-01T04:19:34.811Z,100320.66
2023-01-01T04:22:04.030Z,100328.81
2023-01-01T04:24:32.347Z,100326.25
2023-01-01T04:27:00.854Z,100325.84
2023-01-01T04:29:29.109Z,100332.69
2023-01-01T04:31:57.141Z,100340.16
2023-01-01T04:34:26.609Z,100343.81
2023-01-01T04:36:54.885Z,100349.41
2023-01-01T04:39:22.890Z,100353.22
2023-01-01T04:41:52.393Z,100355.28
2023-01-01T04:44:20.880Z,100358.81
2023-01-01T04:46:48.959Z,100357.25
2023-01-01T04:49:17.135Z,100363.97
2023-01-01T04:51:46.982Z,100364.22
2023-01-01T04:54:15.053Z,100357.19
2023-01-01T04:56:43.025Z,100362.78
2023-01-01T04:59:11.234Z,100363.75
2023-01-01T05:01:39.382Z,100361.06
2023-01-01T05:04:07.554Z,100359.13
2023-01-01T05:06:36.004Z,100363.97
2023-01-01T05:09:05.525Z,100363.69
2023-01-01T05:11:33.801Z,100357.94
2023-01-01T05:14:03.232Z,100359.91
2023-01-01T05:16:33.870Z,100371.19
2023-01-01T05:19:02.355Z,100361.47
2023-01-01T05:21:32.686Z,100355.28
2023-01-01T05:24:02.753Z,100363.31
2023-01-01T05:26:34.765Z,100369.75
2023-01-01T05:29:03.503Z,100367.94
2023-01-01T05:31:35.091Z,100369.88
2023-01-01T05:36:35.391Z,100384.34
2023-01-01T05:39:03.435Z,100390.41
2023-01-01T05:41:36.173Z,100392.56
2023-01-01T05:44:05.514Z,100394.13
2023-01-01T05:46:34.317Z,100410.06
2023-01-01T05:49:02.407Z,100401.66
2023-01-01T05:54:00.291Z,100410.97
2023-01-01T05:56:29.195Z,100414.62
2023-01-01T05:58:58.608Z,100412.09
2023-01-01T06:01:29.286Z,100418.28
2023-01-01T06:03:59.636Z,100413.53
2023-01-01T06:06:29.892Z,100424.97
2023-01-01T06:08:59.971Z,100424.81
2023-01-01T06:11:28.992Z,100427.94
2023-01-01T06:13:59.851Z,100427.50
2023-01-01T06:16:29.873Z,100429.19
2023-01-01T06:18:58.944Z,100425.25
2023-01-01T06:21:29.099Z,100435.03
2023-01-01T06:23:58.803Z,100437.09
2023-01-01T06:26:29.198Z,100430.63
2023-01-01T06:29:00.181Z,100432.59
2023-01-01T06:31:31.203Z,100437.81
2023-01-01T06:34:02.639Z,100439.50
2023-01-01T06:36:30.670Z,100443.31
2023-01-01T06:39:00.233Z,100440.63
2023-01-01T06:41:30.764Z,100438.22
2023-01-01T06:44:02.011Z,100432.00
2023-01-01T06:46:32.365Z,100439.19
2023-01-01T06:49:02.057Z,100439.19
2023-01-01T06:51:32.105Z,100444.81
2023-01-01T06:54:01.302Z,100435.53
2023-01-01T06:56:30.303Z,100440.91
2023-01-01T06:59:00.762Z,100438.94
2023-01-01T07:01:31.214Z,100444.56
2023-01-01T07:04:01.608Z,100451.09
2023-01-01T07:06:31.253Z,100452.66
2023-01-01T07:08:59.760Z,100463.09
2023-01-01T07:11:30.033Z,100471.13
2023-01-01T07:13:58.121Z,100472.97
2023-01-01T07:16:28.161Z,100460.53
2023-01-01T07:18:57.547Z,100455.47
2023-01-01T07:21:30.332Z,100470.78
2023-01-01T07:24:00.167Z,100460.34
2023-01-01T07:26:30.267Z,100481.06
2023-01-01T07:29:06.433Z,100473.88
2023-01-01T07:31:38.073Z,100484.00
2023-01-01T07:34:07.202Z,100477.53
2023-01-01T07:36:35.459Z,100484.25
2023-01-01T07:39:03.586Z,100476.63
2023-01-01T07:41:32.052Z,100480.53
2023-01-01T07:44:00.215Z,100488.59
2023-01-01T07:46:28.546Z,100491.66
2023-01-01T07:48:58.286Z,100493.97
2023-01-01T07:51:26.550Z,100507.38
2023-01-01T07:53:54.551Z,100502.84
2023-01-01T07:56:22.872Z,100517.22
2023-01-01T07:58:50.899Z,100524.53
2023-01-01T08:01:19.216Z,100526.22
2023-01-01T08:03:52.514Z,100529.38
2023-01-01T08:06:22.910Z,100534.00
2023-01-01T08:08:51.419Z,100535.94
2023-01-01T08:11:19.485Z,100538.25
2023-01-01T08:13:47.569Z,100549.41
2023-01-01T08:16:16.088Z,100557.81
2023-01-01T08:18:44.261Z,100556.41
2023-01-01T08:21:12.221Z,100554.94
2023-01-01T08:23:41.830Z,100559.06
2023-01-01T08:26:15.645Z,100560.62
2023-01-01T08:28:44.554Z,100567.06
2023-01-01T08:31:12.737Z,100562.75
2023-01-01T08:33:40.770Z,100562.81
2023-01-01T08:36:11.824Z,100558.75
2023-01-01T08:38:39.898Z,100573.56
2023-01-01T08:41:10.218Z,100570.25
2023-01-01T08:43:38.728Z,100572.53
2023-01-01T08:46:10.070Z,100576.28
2023-01-01T08:48:39.162Z,100576.03
2023-01-01T08:51:13.026Z,100578.75
2023-01-01T08:53:46.985Z,100586.37
2023-01-01T08:56:23.480Z,100591.22
2023-01-01T08:58:55.134Z,100596.19
2023-01-01T09:01:28.586Z,100588.88
2023-01-01T09:03:59.440Z,100589.87
2023-01-01T09:06:28.230Z,100589.87
2023-01-01T09:08:59.635Z,100591.84
2023-01-01T09:11:30.451Z,100600.91
2023-01-01T09:13:59.180Z,100599.78
2023-01-01T09:16:44.075Z,100596.25
2023-01-01T09:19:16.674Z,100597.16
2023-01-01T09:21:45.268Z,100610.47
2023-01-01T09:24:13.799Z,100611.62
2023-01-01T09:26:43.359Z,100617.69
2023-01-01T09:29:11.809Z,100624.50
2023-01-01T09:31:48.811Z,100621.88
2023-01-01T09:34:19.378Z,100627.97
2023-01-01T09:36:47.864Z,100621.19
2023-01-01T09:39:19.816Z,100629.97
2023-01-01T09:42:17.855Z,100608.47
2023-01-01T09:45:18.618Z,100622.34
2023-01-01T09:47:51.581Z,100620.09
2023-01-01T09:50:23.235Z,100620.50
2023-01-01T09:52:56.624Z,100604.97
2023-01-01T09:55:29.746Z,100604.56
2023-01-01T09:58:00.002Z,100603.56
2023-01-01T10:00:34.607Z,100599.19
2023-01-01T10:03:25.684Z,100587.72
2023-01-01T10:06:10.241Z,100595.09
2023-01-01T10:08:46.709Z,100595.38
2023-01-01T10:11:24.201Z,100599.34
2023-01-01T10:13:56.691Z,100604.41
2023-01-01T10:16:31.663Z,100610.94
2023-01-01T10:19:09.955Z,100609.25
2023-01-01T10:21:47.172Z,100608.66
2023-01-01T10:24:32.560Z,100615.56
2023-01-01T10:27:04.420Z,100620.94
2023-01-01T10:29:41.918Z,100622.06
2023-01-01T10:32:19.707Z,100622.31
2023-01-01T10:34:50.076Z,100625.69
2023-01-01T10:37:18.548Z,100624.34
2023-01-01T10:39:48.879Z,100616.53
2023-01-01T10:42:17.875Z,100627.63
2023-01-01T10:44:47.393Z,100629.44
2023-01-01T10:47:26.510Z,100625.31
2023-01-01T10:49:57.365Z,100622.09
2023-01-01T10:52:28.811Z,100633.53
2023-01-01T10:54:57.284Z,100638.47
2023-01-01T10:57:33.176Z,100640.31
2023-01-01T11:00:23.214Z,100646.53
2023-01-01T11:03:15.379Z,100646.97
2023-01-01T11:06:02.707Z,100636.19
2023-01-01T11:08:31.974Z,100634.19
2023-01-01T11:11:02.411Z,100634.28
2023-01-01T11:13:32.055Z,100617.44
2023-01-01T11:16:02.137Z,100613.84
2023-01-01T11:18:36.221Z,100622.00
2023-01-01T11:21:08.567Z,100620.41
2023-01-01T11:23:39.812Z,100618.81
2023-01-01T11:26:24.533Z,100627.84
2023-01-01T11:29:05.001Z,100631.47
2023-01-01T11:31:39.845Z,100624.22
2023-01-01T11:34:29.689Z,100631.16
2023-01-01T11:37:24.765Z,100629.63
2023-01-01T11:39:55.073Z,100632.97
2023-01-01T11:42:25.878Z,100630.09
2023-01-01T11:44:56.771Z,100630.72
2023-01-01T11:47:30.712Z,100629.78
2023-01-01T11:50:05.777Z,100634.94
2023-01-01T11:52:40.599Z,100630.03
2023-01-01T11:55:19.698Z,100632.75
2023-01-01T11:57:57.521Z,100615.50
2023-01-01T12:00:26.417Z,100608.84
2023-01-01T12:03:00.992Z,100610.81
2023-01-01T12:05:43.589Z,100599.28
2023-01-01T12:08:20.139Z,100583.66
2023-01-01T12:10:54.038Z,100584.28
2023-01-01T12:13:27.036Z,100585.66
2023-01-01T12:16:04.425Z,100583.78
2023-01-01T12:18:40.941Z,100593.72
2023-01-01T12:21:16.689Z,100594.78
2023-01-01T12:23:49.198Z,100597.28
2023-01-01T12:26:25.129Z,100605.38
2023-01-01T12:29:26.186Z,100611.06
2023-01-01T12:32:06.438Z,100605.28
2023-01-01T12:34:45.247Z,100609.59
2023-01-01T12:37:23.679Z,100616.13
2023-01-01T12:40:30.316Z,100621.97
2023-01-01T12:43:10.833Z,100627.19
2023-01-01T12:46:03.523Z,100623.50
2023-01-01T12:48:43.957Z,100625.28
2023-01-01T12:51:28.055Z,100636.06
2023-01-01T12:54:10.831Z,100635.28
2023-01-01T12:56:47.152Z,100640.91
2023-01-01T12:59:19.092Z,100642.12
2023-01-01T13:01:50.197Z,100629.81
2023-01-01T13:04:21.608Z,100641.81
2023-01-01T13:06:56.290Z,100632.94
2023-01-01T13:09:27.338Z,100642.59
2023-01-01T13:11:59.731Z,100638.25
2023-01-01T13:14:28.425Z,100644.03
2023-01-01T13:16:58.684Z,100662.03
2023-01-01T13:19:33.100Z,100662.72
2023-01-01T13:22:38.984Z,100654.31
2023-01-01T13:25:19.986Z,100659.50
2023-01-01T13:28:11.666Z,100668.38
2023-01-01T13:30:50.627Z,100668.63
2023-01-01T13:33:27.123Z,100679.00
2023-01-01T13:36:32.892Z,100680.28
2023-01-01T13:39:02.601Z,100680.59
2023-01-01T13:41:32.730Z,100685.66
2023-01-01T13:44:19.534Z,100691.66
2023-01-01T13:47:05.993Z,100689.38
2023-01-01T13:49:48.176Z,100686.81
2023-01-01T13:52:50.926Z,100685.84
2023-01-01T13:55:39.671Z,100684.25
2023-01-01T13:58:37.740Z,100679.16
2023-01-01T14:01:35.674Z,100688.97
2023-01-01T14:04:09.638Z,100683.19
2023-01-01T14:06:40.429Z,100686.56
2023-01-01T14:09:14.322Z,100681.19
2023-01-01T14:11:46.718Z,100666.06
2023-01-01T14:14:28.295Z,100673.69
2023-01-01T14:16:58.563Z,100669.16
2023-01-01T14:19:28.168Z,100678.22
2023-01-01T14:21:57.150Z,100669.59
2023-01-01T14:24:27.054Z,100665.22
2023-01-01T14:26:56.973Z,100660.41
2023-01-01T14:29:28.064Z,100654.47
2023-01-01T14:32:01.102Z,100651.34
2023-01-01T14:34:31.332Z,100656.03
2023-01-01T14:37:01.494Z,100647.41
2023-01-01T14:39:31.565Z,100643.00
2023-01-01T14:42:04.737Z,100639.88
2023-01-01T14:44:37.222Z,100642.72
2023-01-01T14:47:06.460Z,100642.72
2023-01-01T14:49:38.399Z,100643.19
2023-01-01T14:52:10.283Z,100643.03
2023-01-01T14:54:43.624Z,100650.53
2023-01-01T14:57:19.454Z,100651.50
2023-01-01T14:59:49.263Z,100659.88
2023-01-01T15:02:22.366Z,100673.34
2023-01-01T15:04:51.132Z,100686.38
2023-01-01T15:07:23.034Z,100680.41
2023-01-01T15:09:51.470Z,100674.47
2023-01-01T15:12:22.873Z,100684.81
2023-01-01T15:14:54.167Z,100683.25
2023-01-01T15:17:25.237Z,100698.09
2023-01-01T15:20:05.941Z,100706.28
2023-01-01T15:22:39.279Z,100713.84
2023-01-01T15:25:14.937Z,100718.91
2023-01-01T15:27:50.104Z,100718.91
2023-01-01T15:30:26.024Z,100723.03
2023-01-01T15:32:55.755Z,100719.50
2023-01-01T15:35:31.753Z,100705.06
2023-01-01T15:38:02.440Z,100708.00
2023-01-01T15:40:34.630Z,100711.50
2023-01-01T15:43:19.122Z,100712.53
2023-01-01T15:45:55.879Z,100719.22
2023-01-01T15:48:32.749Z,100715.81
2023-01-01T15:51:04.459Z,100707.59
2023-01-01T15:53:41.765Z,100716.19
2023-01-01T15:56:12.780Z,100710.81
2023-01-01T15:58:48.178Z,100711.66
2023-01-01T16:01:21.661Z,100713.78
2023-01-01T16:03:53.191Z,100720.16
2023-01-01T16:06:22.714Z,100726.69
2023-01-01T16:08:51.109Z,100729.38
2023-01-01T16:11:19.524Z,100728.78
2023-01-01T16:13:48.993Z,100736.00
2023-01-01T16:16:27.931Z,100726.53
2023-01-01T16:18:57.054Z,100726.22
2023-01-01T16:21:27.947Z,100729.06
2023-01-01T16:23:56.492Z,100732.59
2023-01-01T16:26:25.037Z,100731.59
2023-01-01T16:28:54.769Z,100742.34
2023-01-01T16:31:27.970Z,100742.34
2023-01-01T16:33:58.049Z,100752.81
2023-01-01T16:36:27.430Z,100748.16
2023-01-01T16:38:55.647Z,100756.22
2023-01-01T16:41:24.329Z,100756.78
2023-01-01T16:43:53.843Z,100760.47
2023-01-01T16:46:21.994Z,100752.56
2023-01-01T16:48:50.248Z,100765.53
2023-01-01T16:51:20.635Z,100761.31
2023-01-01T16:53:49.657Z,100761.84
2023-01-01T16:56:18.030Z,100755.34
2023-01-01T16:58:49.489Z,100760.25
2023-01-01T17:01:20.734Z,100750.06
2023-01-01T17:03:48.753Z,100752.31
2023-01-01T17:06:17.527Z,100755.81
2023-01-01T17:08:45.826Z,100759.75
2023-01-01T17:11:16.622Z,100760.28
2023-01-01T17:13:46.717Z,100770.84
2023-01-01T17:16:25.213Z,100772.97
2023-01-01T17:19:16.115Z,100767.84
2023-01-01T17:21:47.103Z,100770.34
2023-01-01T17:24:15.987Z,100771.31
2023-01-01T17:26:44.193Z,100771.69
2023-01-01T17:29:12.881Z,100765.69
2023-01-01T17:31:40.972Z,100766.53
2023-01-01T17:34:15.009Z,100759.34
2023-01-01T17:36:45.143Z,100762.53
2023-01-01T17:39:13.698Z,100757.19
2023-01-01T17:41:42.015Z,100756.22
2023-01-01T17:44:11.199Z,100762.53
2023-01-01T17:46:39.619Z,100757.19
2023-01-01T17:49:09.044Z,100758.03
2023-01-01T17:51:39.389Z,100755.22
2023-01-01T17:54:11.737Z,100759.16
2023-01-01T17:56:40.553Z,100758.91
2023-01-01T17:59:09.469Z,100752.94
2023-01-01T18:01:37.790Z,100751.81
2023-01-01T18:04:08.224Z,100754.91
2023-01-01T18:06:42.590Z,100752.78
2023-01-01T18:09:12.968Z,100743.75
2023-01-01T18:11:42.197Z,100753.53
2023-01-01T18:14:11.101Z,100744.22
2023-01-01T18:16:41.671Z,100746.91
2023-01-01T18:19:09.701Z,100753.53
2023-01-01T18:21:39.105Z,100746.19
2023-01-01T18:24:12.927Z,100755.22
2023-01-01T18:26:41.205Z,100752.66
2023-01-01T18:29:09.695Z,100746.72
2023-01-01T18:31:37.937Z,100751.66
2023-01-01T18:34:06.995Z,100753.78
2023-01-01T18:36:36.206Z,100750.91
2023-01-01T18:39:13.994Z,100755.03
2023-01-01T18:42:04.442Z,100749.06
2023-01-01T18:44:33.744Z,100754.56
2023-01-01T18:47:13.413Z,100754.31
2023-01-01T18:49:47.507Z,100752.59
2023-01-01T18:52:21.726Z,100757.25
2023-01-01T18:55:02.074Z,100753.00
2023-01-01T18:57:31.093Z,100757.12
2023-01-01T19:00:00.444Z,100770.44
2023-01-01T19:02:36.270Z,100761.91
2023-01-01T19:05:17.860Z,100761.19
2023-01-01T19:07:51.177Z,100765.56
2023-01-01T19:10:21.265Z,100761.12
2023-01-01T19:12:54.686Z,100758.87
2023-01-01T19:15:23.743Z,100759.94
2023-01-01T19:17:55.218Z,100759.50
2023-01-01T19:20:25.311Z,100763.03
2023-01-01T19:22:53.400Z,100762.63
2023-01-01T19:25:37.057Z,100761.47
2023-01-01T19:28:31.865Z,100758.78
2023-01-01T19:31:00.496Z,100751.44
2023-01-01T19:33:30.032Z,100742.91
2023-01-01T19:35:58.231Z,100744.38
2023-01-01T19:38:26.396Z,100749.47
2023-01-01T19:40:56.252Z,100740.16
2023-01-01T19:43:24.280Z,100735.34
2023-01-01T19:45:52.357Z,100734.22
2023-01-01T19:48:20.555Z,100724.34
2023-01-01T19:50:48.640Z,100731.69
2023-01-01T19:53:16.712Z,100729.97
2023-01-01T19:55:45.077Z,100729.84
2023-01-01T19:58:14.453Z,100730.97
2023-01-01T20:00:42.558Z,100728.16
2023-01-01T20:03:43.293Z,100730.81
2023-01-01T20:05:59.401Z,100731.94
2023-01-01T20:08:28.635Z,100724.41
2023-01-01T20:10:56.753Z,100720.47
2023-01-01T20:13:26.273Z,100714.87
2023-01-01T20:15:54.756Z,100717.56
2023-01-01T20:18:22.845Z,100717.56
2023-01-01T20:21:08.601Z,100720.38
2023-01-01T20:23:36.814Z,100712.63
2023-01-01T20:26:05.167Z,100710.78
2023-01-01T20:28:51.963Z,100710.66
2023-01-01T20:31:20.483Z,100707.53
2023-01-01T20:33:48.632Z,100704.72
2023-01-01T20:36:34.358Z,100704.44
2023-01-01T20:39:02.924Z,100704.84
2023-01-01T20:41:31.090Z,100704.56
2023-01-01T20:44:01.756Z,100707.97
2023-01-01T20:46:30.867Z,100706.41
2023-01-01T20:48:59.336Z,100705.41
2023-01-01T20:51:28.006Z,100709.09
2023-01-01T20:53:56.539Z,100705.69
2023-01-01T20:56:24.676Z,100708.72
2023-01-01T20:58:57.625Z,100709.41
2023-01-01T21:01:30.159Z,100715.63
2023-01-01T21:03:58.486Z,100710.41
2023-01-01T21:06:26.516Z,100705.28
2023-01-01T21:08:56.414Z,100695.53
2023-01-01T21:11:24.498Z,100697.66
2023-01-01T21:13:52.579Z,100697.06
2023-01-01T21:16:28.854Z,100697.44
2023-01-01T21:18:59.255Z,100707.59
2023-01-01T21:21:31.541Z,100704.44
2023-01-01T21:24:03.539Z,100699.94
2023-01-01T21:26:36.806Z,100696.41
2023-01-01T21:29:12.662Z,100675.22
2023-01-01T21:31:42.844Z,100688.91
2023-01-01T21:34:35.506Z,100685.94
2023-01-01T21:37:14.668Z,100678.75
2023-01-01T21:39:42.813Z,100681.09
2023-01-01T21:42:24.293Z,100671.97
2023-01-01T21:44:57.650Z,100676.06
2023-01-01T21:47:27.194Z,100674.50
2023-01-01T21:49:57.324Z,100677.19
2023-01-01T21:52:26.445Z,100683.25
2023-01-01T21:54:55.740Z,100676.91
2023-01-01T21:57:25.587Z,100674.09
2023-01-01T21:59:55.181Z,100680.16
2023-01-01T22:02:46.911Z,100675.78
2023-01-01T22:05:34.135Z,100687.84
2023-01-01T22:08:21.063Z,100667.22
2023-01-01T22:10:49.450Z,100669.78
2023-01-01T22:13:19.615Z,100662.72
2023-01-01T22:15:47.754Z,100662.72
2023-01-01T22:18:23.965Z,100660.75
2023-01-01T22:20:54.078Z,100662.19
2023-01-01T22:23:34.994Z,100669.50
2023-01-01T22:26:13.071Z,100661.34
2023-01-01T22:28:44.754Z,100660.75
2023-01-01T22:31:18.829Z,100656.63
2023-01-01T22:33:48.961Z,100659.56
2023-01-01T22:36:21.427Z,100650.81
2023-01-01T22:38:50.744Z,100640.34
2023-01-01T22:41:18.999Z,100629.34
2023-01-01T22:43:48.161Z,100636.69
2023-01-01T22:46:21.085Z,100633.56
2023-01-01T22:48:54.364Z,100617.72
2023-01-01T22:51:34.534Z,100629.56
2023-01-01T22:54:02.517Z,100618.00
2023-01-01T22:56:30.706Z,100615.03
2023-01-01T22:58:58.753Z,100604.59
2023-01-01T23:01:26.930Z,100611.84
2023-01-01T23:03:55.795Z,100595.03
2023-01-01T23:06:24.961Z,100593.78
2023-01-01T23:08:54.690Z,100588.69
2023-01-01T23:11:23.684Z,100588.41
2023-01-01T23:14:10.284Z,100572.31
2023-01-01T23:16:38.736Z,100575.97
2023-01-01T23:19:07.146Z,100568.47
2023-01-01T23:21:37.149Z,100565.34
2023-01-01T23:24:12.080Z,100566.34
2023-01-01T23:26:41.463Z,100561.22
2023-01-01T23:29:12.324Z,100559.50
2023-01-01T23:31:42.176Z,100553.72
2023-01-01T23:34:10.914Z,100561.53
2023-01-01T23:36:40.137Z,100550.53
2023-01-01T23:39:09.608Z,100551.81
2023-01-01T23:41:37.956Z,100540.22
2023-01-01T23:44:06.483Z,100539.38
2023-01-01T23:46:36.494Z,100536.00
2023-01-01T23:49:05.696Z,100539.91
2023-01-01T23:51:34.288Z,100535.16
2023-01-01T23:54:02.299Z,100532.84
2023-01-01T23:56:31.950Z,100519.06
2023-01-01T23:58:59.986Z,100522.97
